Time;durP1;ratioP1;P1;durP2;ratioP2;P2;SDS_P1;SDS_P2;PMS_P1;PMS_P2;Temp;Humidity;BMP_temperature;BMP_pressure;BME280_temperature;BME280_humidity;BME280_pressure;Samples;Min_cycle;Max_cycle;Signal;HPM_P1;HPM_P2
2022/09/28 00:00:09;;;;;;;4.77;3.57;;;6.50;99.90;;;;;;8381042;28;20611;-66
2022/09/28 00:04:11;;;;;;;4.50;4.00;;;6.40;99.90;;;;;;8382168;28;20184;-66
2022/09/28 00:08:12;;;;;;;5.43;4.67;;;6.40;99.90;;;;;;8384989;28;20183;-67
2022/09/28 00:12:17;;;;;;;4.90;4.30;;;6.50;99.90;;;;;;8384862;28;20205;-67
2022/09/28 00:16:22;;;;;;;5.43;4.57;;;6.40;99.90;;;;;;8380397;28;20207;-67
2022/09/28 00:20:22;;;;;;;4.10;3.67;;;6.50;99.90;;;;;;8381308;28;20519;-67
2022/09/28 00:24:23;;;;;;;4.23;3.50;;;6.50;99.90;;;;;;8383125;28;20599;-68
2022/09/28 00:28:24;;;;;;;4.20;3.37;;;6.40;99.90;;;;;;8384791;28;20592;-67
2022/09/28 00:32:25;;;;;;;3.40;3.00;;;6.40;99.90;;;;;;8386505;28;20189;-67
2022/09/28 00:36:31;;;;;;;5.33;3.00;;;6.40;99.90;;;;;;8383777;28;20185;-67
2022/09/28 00:40:31;;;;;;;6.20;3.13;;;6.50;99.90;;;;;;8381490;28;20251;-67
2022/09/28 00:44:38;;;;;;;3.20;2.90;;;6.40;99.90;;;;;;8381057;28;20173;-67
2022/09/28 00:48:44;;;;;;;4.03;3.63;;;6.30;99.90;;;;;;8382355;28;20210;-67
2022/09/28 00:53:10;;;;;;;4.70;4.13;;;6.20;99.90;;;;;;8382905;28;20177;-67
2022/09/28 00:57:12;;;;;;;6.27;3.67;;;6.20;99.90;;;;;;8384113;28;20247;-67
2022/09/28 01:01:14;;;;;;;5.07;3.83;;;6.10;99.90;;;;;;8382519;28;20267;-67
2022/09/28 01:05:19;;;;;;;4.87;4.10;;;6.00;99.90;;;;;;8383271;28;20177;-67
2022/09/28 01:09:22;;;;;;;5.23;4.57;;;5.90;99.90;;;;;;8381501;28;20250;-67
2022/09/28 01:13:23;;;;;;;6.03;4.80;;;5.90;99.90;;;;;;8381043;28;20259;-67
2022/09/28 01:17:43;;;;;;;7.43;5.20;;;6.00;99.90;;;;;;8380522;28;20219;-67
2022/09/28 01:21:50;;;;;;;4.70;3.77;;;6.00;99.90;;;;;;8373302;28;20272;-68
2022/09/28 01:26:16;;;;;;;5.10;3.77;;;6.10;99.90;;;;;;8377038;28;20177;-67
2022/09/28 01:30:19;;;;;;;2.87;2.53;;;6.10;99.90;;;;;;8383345;28;20173;-67
2022/09/28 01:34:33;;;;;;;3.33;2.63;;;6.20;99.90;;;;;;8378540;28;20181;-67
2022/09/28 01:38:50;;;;;;;2.77;2.30;;;6.20;99.90;;;;;;8379042;28;20189;-67
2022/09/28 01:42:57;;;;;;;5.13;2.70;;;6.20;99.90;;;;;;8381574;28;20192;-67
2022/09/28 01:47:03;;;;;;;4.50;1.97;;;6.20;99.90;;;;;;8380162;28;20177;-67
2022/09/28 01:51:10;;;;;;;2.13;1.93;;;6.20;99.90;;;;;;8382421;28;20200;-67
2022/09/28 01:55:33;;;;;;;2.23;1.80;;;6.20;99.90;;;;;;8384889;28;20230;-67
2022/09/28 01:59:38;;;;;;;2.97;2.00;;;6.20;99.90;;;;;;8381705;28;20204;-67
2022/09/28 02:03:56;;;;;;;3.60;2.20;;;6.10;99.90;;;;;;8377820;28;20189;-67
2022/09/28 02:08:16;;;;;;;2.50;1.73;;;6.00;99.90;;;;;;8381543;28;20268;-67
2022/09/28 02:12:26;;;;;;;2.30;2.00;;;5.90;99.90;;;;;;8377149;28;20201;-67
2022/09/28 02:16:41;;;;;;;4.67;2.20;;;5.80;99.90;;;;;;8378659;28;20243;-67
2022/09/28 02:20:46;;;;;;;2.80;2.00;;;5.70;99.90;;;;;;8379250;28;20213;-67
2022/09/28 02:25:09;;;;;;;2.27;1.70;;;5.70;99.90;;;;;;8383097;28;20185;-67
2022/09/28 02:29:10;;;;;;;3.77;2.30;;;5.60;99.90;;;;;;8378545;28;20199;-67
2022/09/28 02:33:32;;;;;;;2.60;2.10;;;5.60;99.90;;;;;;8377233;28;20177;-67
2022/09/28 02:37:37;;;;;;;4.13;2.10;;;5.60;99.90;;;;;;8380888;28;20262;-67
2022/09/28 02:41:50;;;;;;;2.70;2.40;;;5.70;99.90;;;;;;8379104;28;20237;-67
2022/09/28 02:46:03;;;;;;;4.53;2.40;;;5.90;99.90;;;;;;8377937;28;20304;-67
2022/09/28 02:50:06;;;;;;;3.70;2.70;;;6.00;99.90;;;;;;8379275;28;20188;-67
2022/09/28 02:54:19;;;;;;;4.37;2.93;;;6.20;99.90;;;;;;8378101;28;20193;-68
2022/09/28 02:58:26;;;;;;;3.37;2.43;;;6.20;99.90;;;;;;8387414;28;20188;-67
2022/09/28 03:02:29;;;;;;;2.77;2.20;;;6.20;99.90;;;;;;8383696;28;20209;-67
2022/09/28 03:06:50;;;;;;;3.00;2.30;;;6.10;99.90;;;;;;8378087;28;20189;-67
2022/09/28 03:11:06;;;;;;;3.13;2.37;;;5.90;99.90;;;;;;8384678;28;20177;-68
2022/09/28 03:15:10;;;;;;;2.67;1.93;;;5.90;99.90;;;;;;8383174;28;20297;-67
2022/09/28 03:19:12;;;;;;;5.93;2.23;;;5.80;99.90;;;;;;8375083;28;20208;-67
2022/09/28 03:23:13;;;;;;;2.60;2.07;;;5.70;99.90;;;;;;8386962;28;20173;-67
2022/09/28 03:27:13;;;;;;;4.03;2.13;;;5.60;99.90;;;;;;8384610;28;20185;-68
2022/09/28 03:31:14;;;;;;;2.57;2.27;;;5.50;99.90;;;;;;8384350;28;20185;-67
2022/09/28 03:35:15;;;;;;;2.17;1.97;;;5.50;99.90;;;;;;8383861;28;20180;-67
2022/09/28 03:39:16;;;;;;;1.90;1.80;;;5.40;99.90;;;;;;8400392;28;20221;-67
2022/09/28 03:43:17;;;;;;;2.27;2.07;;;5.40;99.90;;;;;;8380543;28;20307;-67
2022/09/28 03:47:18;;;;;;;3.20;1.90;;;5.30;99.90;;;;;;8381832;28;20181;-68
2022/09/28 03:51:19;;;;;;;2.30;1.97;;;5.20;99.90;;;;;;8381837;28;20184;-67
2022/09/28 03:55:19;;;;;;;2.47;2.20;;;5.10;99.90;;;;;;8378896;28;20188;-67
2022/09/28 03:59:23;;;;;;;2.03;1.77;;;5.00;99.90;;;;;;8383817;28;20300;-67
2022/09/28 04:03:24;;;;;;;1.90;1.70;;;4.90;99.90;;;;;;8384877;28;20259;-67
2022/09/28 04:07:25;;;;;;;3.33;1.90;;;4.80;99.90;;;;;;8382967;28;20189;-68
2022/09/28 04:11:26;;;;;;;2.33;1.60;;;4.80;99.90;;;;;;8383190;28;20203;-68
2022/09/28 04:15:26;;;;;;;2.40;2.17;;;4.70;99.90;;;;;;8384572;28;20265;-68
2022/09/28 04:19:27;;;;;;;3.10;2.37;;;4.70;99.90;;;;;;8385572;28;20668;-68
2022/09/28 04:23:28;;;;;;;2.17;1.97;;;4.60;99.90;;;;;;8380566;28;20585;-68
2022/09/28 04:31:50;;;;;;;2.60;2.30;;;4.50;99.90;;;;;;8381270;28;20239;-68
2022/09/28 04:35:51;;;;;;;2.87;2.27;;;4.40;99.90;;;;;;8383734;28;20199;-68
2022/09/28 04:39:52;;;;;;;2.97;2.40;;;4.40;99.90;;;;;;8378187;28;20212;-68
2022/09/28 04:43:53;;;;;;;3.37;2.40;;;4.30;99.90;;;;;;8381591;28;20205;-68
2022/09/28 04:47:54;;;;;;;3.10;2.20;;;4.20;99.90;;;;;;8381634;28;20191;-68
2022/09/28 04:51:54;;;;;;;4.10;2.13;;;4.10;99.90;;;;;;8380360;28;20354;-68
2022/09/28 04:56:10;;;;;;;3.53;2.00;;;4.00;99.90;;;;;;8379877;28;20177;-68
2022/09/28 05:00:11;;;;;;;3.90;2.37;;;3.90;99.90;;;;;;8380587;28;20291;-68
2022/09/28 05:04:12;;;;;;;2.87;2.37;;;3.90;99.90;;;;;;8377587;28;20216;-68
2022/09/28 05:08:13;;;;;;;3.10;2.70;;;3.90;99.90;;;;;;8382716;28;20188;-68
2022/09/28 05:12:14;;;;;;;2.30;1.97;;;3.80;99.90;;;;;;8383353;28;20205;-68
2022/09/28 05:16:16;;;;;;;2.60;2.07;;;3.70;99.90;;;;;;8381709;28;20212;-68
2022/09/28 05:20:16;;;;;;;3.07;2.30;;;3.70;99.90;;;;;;8382203;28;20208;-68
2022/09/28 05:24:17;;;;;;;3.60;2.90;;;3.90;99.90;;;;;;8379449;28;20273;-68
2022/09/28 05:28:27;;;;;;;8.03;5.63;;;4.10;99.90;;;;;;8379895;28;20194;-68
2022/09/28 05:32:28;;;;;;;8.20;5.77;;;4.30;99.90;;;;;;8374820;28;20370;-68
2022/09/28 05:36:31;;;;;;;6.77;4.57;;;4.60;99.90;;;;;;8381258;28;20185;-69
2022/09/28 05:40:32;;;;;;;4.77;3.50;;;4.80;99.90;;;;;;8377645;28;20209;-68
2022/09/28 05:44:33;;;;;;;5.43;3.60;;;5.10;99.90;;;;;;8375854;28;20186;-68
2022/09/28 05:48:34;;;;;;;4.23;3.30;;;5.30;99.90;;;;;;8378482;28;20452;-68
2022/09/28 05:52:34;;;;;;;3.90;2.90;;;5.40;99.90;;;;;;8374652;28;20181;-69
2022/09/28 05:56:35;;;;;;;3.70;3.00;;;5.50;99.90;;;;;;8382619;28;20180;-69
2022/09/28 06:00:36;;;;;;;3.27;2.90;;;5.60;99.90;;;;;;8377116;28;20232;-69
2022/09/28 06:04:37;;;;;;;4.47;3.30;;;5.80;99.90;;;;;;8377930;28;20188;-68
2022/09/28 06:08:41;;;;;;;2.63;2.23;;;5.90;99.90;;;;;;8377395;28;20178;-69
2022/09/28 06:12:43;;;;;;;2.70;2.40;;;6.10;99.90;;;;;;8378333;28;20201;-69
2022/09/28 06:16:44;;;;;;;4.37;2.70;;;6.30;99.90;;;;;;8379385;28;20529;-69
2022/09/28 06:20:47;;;;;;;3.67;2.80;;;6.50;99.90;;;;;;8376539;28;20213;-68
2022/09/28 06:24:48;;;;;;;4.17;3.30;;;6.70;99.90;;;;;;8382419;28;20181;-69
2022/09/28 06:28:49;;;;;;;6.73;3.50;;;6.80;99.90;;;;;;8373535;28;20183;-68
2022/09/28 06:32:53;;;;;;;5.60;4.30;;;7.00;99.90;;;;;;8381059;28;20173;-68
2022/09/28 06:36:54;;;;;;;11.77;8.87;;;7.10;99.90;;;;;;8386918;28;20189;-67
2022/09/28 06:40:56;;;;;;;21.77;16.40;;;7.10;99.90;;;;;;8384901;28;20197;-68
2022/09/28 06:44:58;;;;;;;38.30;25.73;;;7.10;99.90;;;;;;8383659;28;20189;-67
2022/09/28 06:48:58;;;;;;;54.07;33.77;;;7.20;99.90;;;;;;8384923;28;20173;-67
2022/09/28 06:53:00;;;;;;;36.97;22.83;;;7.30;99.90;;;;;;8400450;28;20227;-68
2022/09/28 06:57:01;;;;;;;34.77;17.47;;;7.40;99.90;;;;;;8375351;28;20189;-68
2022/09/28 07:01:02;;;;;;;30.90;15.53;;;7.60;99.90;;;;;;8382712;28;20266;-68
2022/09/28 07:05:03;;;;;;;24.73;12.90;;;8.10;99.90;;;;;;8383442;28;20216;-68
2022/09/28 07:09:06;;;;;;;16.27;10.63;;;8.90;99.90;;;;;;8385424;28;20178;-68
2022/09/28 07:13:07;;;;;;;7.20;6.50;;;9.60;99.90;;;;;;8386970;28;20201;-68
2022/09/28 07:17:08;;;;;;;5.50;5.00;;;10.00;99.90;;;;;;8383699;28;20275;-68
2022/09/28 07:21:12;;;;;;;8.03;5.33;;;10.40;99.90;;;;;;8383244;28;20296;-67
2022/09/28 07:25:13;;;;;;;5.00;4.60;;;10.60;99.90;;;;;;8385881;28;20176;-68
2022/09/28 07:29:14;;;;;;;4.30;3.90;;;10.60;99.90;;;;;;8386065;28;20179;-68
2022/09/28 07:33:16;;;;;;;3.90;3.60;;;10.70;99.90;;;;;;8383903;28;20177;-69
2022/09/28 07:37:17;;;;;;;3.57;3.27;;;10.60;99.90;;;;;;8387837;28;20520;-68
2022/09/28 07:41:30;;;;;;;3.57;3.27;;;10.70;99.90;;;;;;8382973;28;20212;-68
2022/09/28 07:45:34;;;;;;;3.73;2.97;;;11.00;99.90;;;;;;8387956;28;20638;-68
2022/09/28 07:49:35;;;;;;;4.17;3.17;;;11.30;99.90;;;;;;8382212;28;20201;-69
2022/09/28 07:53:37;;;;;;;2.57;2.20;;;11.70;99.90;;;;;;8380521;28;20188;-69
2022/09/28 07:57:38;;;;;;;2.57;1.83;;;11.90;99.90;;;;;;8384095;28;20224;-68
2022/09/28 08:01:39;;;;;;;1.50;1.40;;;12.00;99.90;;;;;;8382084;28;20212;-68
2022/09/28 08:05:41;;;;;;;1.13;1.03;;;12.30;99.90;;;;;;8386544;28;20193;-67
2022/09/28 08:09:43;;;;;;;1.20;1.10;;;12.50;99.90;;;;;;8386363;28;20263;-68
2022/09/28 08:13:45;;;;;;;1.50;1.00;;;12.70;1.00;;;;;;8388589;28;20219;-69
2022/09/28 08:17:49;;;;;;;1.17;0.90;;;13.00;1.00;;;;;;8381297;28;20627;-69
2022/09/28 08:21:50;;;;;;;2.43;0.93;;;13.20;99.90;;;;;;8383084;28;20213;-68
2022/09/28 08:25:52;;;;;;;1.07;0.90;;;13.60;99.90;;;;;;8383601;28;20787;-68
2022/09/28 08:29:53;;;;;;;1.33;0.80;;;14.00;99.90;;;;;;8386950;28;20180;-69
2022/09/28 08:33:55;;;;;;;2.33;0.83;;;14.10;99.90;;;;;;8382088;28;20203;-69
2022/09/28 08:37:56;;;;;;;0.60;0.57;;;14.30;99.90;;;;;;8380947;28;20185;-69
2022/09/28 08:42:24;;;;;;;0.80;0.70;;;14.40;99.90;;;;;;8382206;28;20205;-69
2022/09/28 08:46:32;;;;;;;1.40;0.77;;;14.50;99.90;;;;;;8382747;28;20191;-68
2022/09/28 08:50:36;;;;;;;1.10;0.60;;;14.70;99.90;;;;;;8381175;28;20471;-69
2022/09/28 08:55:05;;;;;;;1.37;0.60;;;14.70;74.20;;;;;;8394965;28;20263;-68
2022/09/28 08:59:13;;;;;;;0.90;0.60;;;14.90;66.80;;;;;;8395386;28;20182;-68
2022/09/28 09:03:34;;;;;;;1.10;0.63;;;14.70;46.60;;;;;;8380542;28;20181;-68
2022/09/28 09:08:04;;;;;;;1.50;0.63;;;14.40;50.10;;;;;;8382262;28;20185;-67
2022/09/28 09:12:46;;;;;;;0.80;0.50;;;14.40;90.80;;;;;;8385494;28;20193;-69
2022/09/28 09:16:57;;;;;;;0.93;0.63;;;14.70;60.30;;;;;;8379987;28;20208;-69
2022/09/28 09:21:05;;;;;;;1.00;0.60;;;14.70;70.50;;;;;;8378338;28;20216;-67
2022/09/28 09:25:27;;;;;;;1.03;0.50;;;14.50;88.10;;;;;;8371445;28;20184;-68
2022/09/28 09:29:49;;;;;;;0.90;0.57;;;14.40;99.90;;;;;;8380358;28;20181;-68
2022/09/28 09:33:59;;;;;;;0.50;0.40;;;14.50;99.90;;;;;;8380634;28;20263;-69
2022/09/28 09:38:08;;;;;;;1.90;1.03;;;14.50;99.90;;;;;;8383578;28;20219;-69
2022/09/28 09:42:40;;;;;;;1.50;0.80;;;14.60;99.90;;;;;;8375067;28;20216;-68
2022/09/28 09:46:53;;;;;;;1.77;0.67;;;14.50;99.90;;;;;;8378219;28;20208;-67
2022/09/28 09:50:58;;;;;;;0.67;0.53;;;14.30;99.90;;;;;;8376275;28;20185;-68
2022/09/28 09:55:03;;;;;;;0.87;0.40;;;14.10;99.90;;;;;;8383190;28;20268;-68
2022/09/28 09:59:12;;;;;;;1.73;0.60;;;13.90;99.90;;;;;;8395479;28;20288;-68
2022/09/28 10:03:30;;;;;;;0.90;0.60;;;13.80;99.90;;;;;;8381044;28;20241;-67
2022/09/28 10:08:03;;;;;;;0.73;0.47;;;13.60;99.90;;;;;;8383614;28;20178;-68
2022/09/28 10:12:09;;;;;;;2.03;0.70;;;13.50;99.90;;;;;;8381029;28;20207;-68
2022/09/28 10:16:10;;;;;;;0.90;0.50;;;13.50;99.90;;;;;;8380823;28;20218;-69
2022/09/28 10:20:16;;;;;;;0.90;0.60;;;13.50;99.90;;;;;;8379236;28;20329;-69
2022/09/28 10:24:34;;;;;;;0.93;0.70;;;13.40;99.90;;;;;;8381263;28;20177;-69
2022/09/28 10:28:44;;;;;;;1.50;0.70;;;13.40;99.90;;;;;;8378492;28;20255;-69
2022/09/28 10:32:48;;;;;;;0.80;0.80;;;13.30;99.90;;;;;;8378554;28;20180;-69
2022/09/28 10:37:02;;;;;;;1.20;1.10;;;13.30;99.90;;;;;;8381588;28;20192;-69
2022/09/28 10:41:15;;;;;;;2.40;0.80;;;13.30;1.00;;;;;;8375124;28;20661;-69
2022/09/28 10:45:22;;;;;;;0.90;0.80;;;13.30;1.00;;;;;;8378052;28;20209;-70
2022/09/28 10:49:24;;;;;;;2.17;1.10;;;13.20;1.00;;;;;;8369833;28;20819;-70
2022/09/28 10:53:28;;;;;;;1.00;0.80;;;13.00;44.50;;;;;;8386461;28;20264;-70
2022/09/28 10:57:35;;;;;;;1.10;1.00;;;12.70;99.90;;;;;;8381278;28;20207;-67
2022/09/28 11:01:36;;;;;;;0.90;0.70;;;12.50;99.90;;;;;;8374649;28;20209;-68
2022/09/28 11:05:38;;;;;;;1.67;0.80;;;12.30;99.90;;;;;;8380921;28;20192;-69
2022/09/28 11:09:41;;;;;;;1.77;0.67;;;12.10;99.90;;;;;;8378701;28;20215;-70
2022/09/28 11:13:51;;;;;;;0.80;0.60;;;11.90;99.90;;;;;;8379976;28;20232;-70
2022/09/28 11:17:52;;;;;;;1.10;0.63;;;11.80;99.90;;;;;;8386037;28;20185;-71
2022/09/28 11:21:53;;;;;;;0.50;0.50;;;11.90;99.90;;;;;;8383977;28;20205;-70
2022/09/28 11:26:05;;;;;;;0.70;0.67;;;11.80;99.90;;;;;;8383974;28;20177;-70
2022/09/28 11:30:50;;;;;;;1.67;0.80;;;11.80;99.90;;;;;;8384622;28;20185;-70
2022/09/28 11:34:51;;;;;;;1.37;0.60;;;11.90;1.00;;;;;;8379922;28;20186;-70
2022/09/28 11:39:11;;;;;;;1.40;1.10;;;11.90;1.00;;;;;;8384250;28;20227;-69
2022/09/28 11:43:30;;;;;;;1.07;0.80;;;11.90;1.00;;;;;;8383327;28;20185;-70
2022/09/28 11:48:09;;;;;;;1.57;0.93;;;12.10;99.90;;;;;;8385228;28;20181;-69
2022/09/28 11:52:19;;;;;;;1.27;0.80;;;12.20;99.90;;;;;;8292758;28;20189;-72
2022/09/28 11:56:35;;;;;;;1.00;0.80;;;12.10;1.00;;;;;;8402057;28;20177;-70
2022/09/28 12:00:43;;;;;;;1.70;1.30;;;12.10;1.00;;;;;;8383227;28;20218;-70
2022/09/28 12:05:07;;;;;;;2.10;1.30;;;12.00;1.00;;;;;;8397040;28;20247;-70
2022/09/28 12:09:21;;;;;;;1.20;1.00;;;12.00;51.20;;;;;;8375683;28;20185;-69
2022/09/28 12:13:29;;;;;;;1.40;1.30;;;12.10;25.60;;;;;;8397886;28;20213;-70
2022/09/28 12:17:39;;;;;;;6.43;1.43;;;12.20;1.00;;;;;;8381439;28;20235;-70
2022/09/28 12:21:55;;;;;;;2.87;1.70;;;12.30;1.00;;;;;;8393189;28;20217;-69
2022/09/28 12:26:03;;;;;;;1.27;0.97;;;12.60;99.90;;;;;;8380825;28;20177;-70
2022/09/28 12:30:18;;;;;;;1.40;1.10;;;12.80;92.20;;;;;;8379443;28;20189;-69
2022/09/28 12:34:21;;;;;;;1.27;0.70;;;12.90;99.90;;;;;;8380457;28;20220;-70
2022/09/28 12:38:44;;;;;;;2.27;1.00;;;12.90;1.00;;;;;;8378483;28;20197;-70
2022/09/28 12:43:27;;;;;;;0.97;0.80;;;12.90;1.00;;;;;;8378795;28;20267;-69
2022/09/28 12:47:54;;;;;;;1.50;0.90;;;13.10;1.00;;;;;;8377908;28;20209;-70
2022/09/28 12:51:58;;;;;;;2.47;0.87;;;13.50;1.00;;;;;;8377719;28;20185;-71
2022/09/28 12:56:26;;;;;;;1.27;0.97;;;13.60;99.90;;;;;;8379848;28;20205;-70
2022/09/28 13:01:02;;;;;;;1.27;0.77;;;13.70;99.90;;;;;;8378129;28;20216;-69
2022/09/28 13:05:12;;;;;;;1.13;0.80;;;13.60;99.90;;;;;;8380491;28;20180;-69
2022/09/28 13:09:19;;;;;;;0.93;0.83;;;13.40;99.90;;;;;;8380266;28;20232;-69
2022/09/28 13:13:30;;;;;;;1.70;1.13;;;13.70;99.90;;;;;;8380331;28;20227;-69
2022/09/28 13:17:46;;;;;;;1.47;0.90;;;14.30;99.90;;;;;;8377103;28;20189;-69
2022/09/28 13:22:17;;;;;;;1.57;0.60;;;14.50;99.90;;;;;;8378714;28;20209;-70
2022/09/28 13:26:39;;;;;;;1.33;0.97;;;14.60;99.90;;;;;;8379105;28;20185;-69
2022/09/28 13:30:42;;;;;;;2.00;1.20;;;14.60;99.90;;;;;;8394177;28;20197;-69
2022/09/28 13:34:49;;;;;;;3.77;2.37;;;14.70;99.90;;;;;;8378018;28;20196;-69
2022/09/28 13:38:51;;;;;;;3.20;2.63;;;14.80;99.90;;;;;;8378785;28;20266;-70
2022/09/28 13:43:13;;;;;;;5.33;4.83;;;14.70;99.90;;;;;;8380264;28;20209;-69
2022/09/28 13:47:38;;;;;;;2.30;1.90;;;14.60;99.90;;;;;;8378299;28;20181;-70
2022/09/28 13:52:04;;;;;;;1.40;1.03;;;14.30;99.90;;;;;;8365287;28;20204;-69
2022/09/28 13:56:43;;;;;;;1.63;0.80;;;14.00;99.90;;;;;;8383730;28;20225;-69
2022/09/28 14:00:55;;;;;;;1.30;0.90;;;13.80;99.90;;;;;;8374630;28;20274;-69
2022/09/28 14:05:01;;;;;;;1.27;0.90;;;13.90;99.90;;;;;;8372553;28;20231;-70
2022/09/28 14:09:22;;;;;;;1.60;1.07;;;14.10;99.90;;;;;;8381691;28;20192;-69
2022/09/28 14:13:43;;;;;;;3.70;1.20;;;14.40;99.90;;;;;;8396963;28;20201;-70
2022/09/28 14:18:04;;;;;;;2.83;1.20;;;15.00;99.90;;;;;;8366007;28;20276;-69
2022/09/28 14:22:26;;;;;;;3.43;1.60;;;15.20;99.90;;;;;;8394840;28;20219;-69
2022/09/28 14:26:41;;;;;;;0.70;0.60;;;15.00;99.90;;;;;;8384389;28;20184;-67
2022/09/28 14:30:42;;;;;;;1.60;1.10;;;14.40;99.90;;;;;;8379636;28;20185;-68
2022/09/28 14:34:46;;;;;;;0.90;0.80;;;14.00;99.90;;;;;;8375990;28;20660;-68
2022/09/28 14:43:26;;;;;;;1.00;0.90;;;13.90;99.90;;;;;;8380869;28;20252;-68
2022/09/28 14:47:41;;;;;;;1.40;0.70;;;14.00;99.90;;;;;;8376758;28;20190;-68
2022/09/28 14:51:43;;;;;;;1.37;0.90;;;13.90;99.90;;;;;;8375837;28;20224;-68
2022/09/28 14:55:49;;;;;;;2.57;1.27;;;13.80;99.90;;;;;;8387528;28;20181;-69
2022/09/28 14:59:50;;;;;;;2.63;1.17;;;13.70;99.90;;;;;;8384450;28;20255;-68
2022/09/28 15:03:54;;;;;;;2.13;1.30;;;13.50;99.90;;;;;;8384663;28;20213;-68
2022/09/28 15:07:57;;;;;;;2.33;1.20;;;13.30;99.90;;;;;;8386595;28;20591;-69
2022/09/28 15:12:11;;;;;;;2.57;0.97;;;13.30;99.90;;;;;;8384132;28;20205;-68
2022/09/28 15:16:16;;;;;;;1.40;0.90;;;13.40;99.90;;;;;;8383679;28;20217;-68
2022/09/28 15:20:53;;;;;;;1.30;0.83;;;13.50;99.90;;;;;;8376554;28;20288;-68
2022/09/28 15:24:56;;;;;;;1.97;1.20;;;13.40;99.90;;;;;;8342992;28;20208;-68
2022/09/28 15:28:58;;;;;;;1.70;1.00;;;13.20;99.90;;;;;;8385382;28;20192;-68
2022/09/28 15:37:31;;;;;;;1.70;1.17;;;12.70;99.90;;;;;;8384699;28;20580;-68
2022/09/28 15:41:33;;;;;;;1.73;1.10;;;12.60;99.90;;;;;;8384207;28;20211;-69
2022/09/28 15:45:37;;;;;;;1.10;1.00;;;12.50;99.90;;;;;;8387628;28;20193;-66
2022/09/28 15:50:00;;;;;;;1.47;1.20;;;12.30;99.90;;;;;;8376437;28;20194;-68
2022/09/28 15:54:18;;;;;;;1.43;0.87;;;12.20;99.90;;;;;;8395339;28;20180;-68
2022/09/28 15:58:21;;;;;;;1.23;1.13;;;12.00;1.00;;;;;;8384889;28;20192;-69
2022/09/28 16:02:23;;;;;;;2.50;1.20;;;12.00;1.00;;;;;;8384549;28;20212;-68
2022/09/28 16:06:24;;;;;;;1.63;1.20;;;11.90;1.00;;;;;;8381563;28;20187;-67
2022/09/28 16:10:33;;;;;;;1.37;0.93;;;11.80;1.00;;;;;;8386803;28;20185;-66
2022/09/28 16:14:34;;;;;;;1.20;0.90;;;11.60;1.00;;;;;;8384018;28;20221;-68
2022/09/28 16:18:38;;;;;;;1.20;0.90;;;11.40;1.00;;;;;;8382716;28;20279;-68
2022/09/28 16:22:41;;;;;;;2.30;0.90;;;11.10;16.90;;;;;;8399395;28;20242;-68
2022/09/28 16:26:42;;;;;;;0.97;0.87;;;10.80;99.90;;;;;;8383597;28;20612;-67
2022/09/28 16:31:00;;;;;;;1.40;1.07;;;10.50;99.90;;;;;;8381239;28;20616;-67
2022/09/28 16:35:18;;;;;;;2.20;1.27;;;10.10;1.00;;;;;;8397939;28;20221;-66
2022/09/28 16:39:19;;;;;;;1.30;1.07;;;9.80;99.90;;;;;;8396365;28;20186;-66
2022/09/28 16:43:31;;;;;;;1.60;1.00;;;9.60;1.00;;;;;;8386994;28;20209;-66
2022/09/28 16:47:33;;;;;;;1.47;1.00;;;9.40;1.00;;;;;;8383266;28;20186;-67
2022/09/28 16:51:34;;;;;;;2.17;1.00;;;9.20;99.90;;;;;;8385337;28;20268;-66
2022/09/28 16:55:36;;;;;;;1.30;0.93;;;9.10;99.90;;;;;;8382069;28;20196;-67
2022/09/28 16:59:37;;;;;;;3.47;0.90;;;9.10;1.00;;;;;;8396293;28;20191;-66
2022/09/28 17:03:41;;;;;;;1.60;0.90;;;9.10;99.90;;;;;;8383014;28;20181;-66
2022/09/28 17:08:07;;;;;;;1.00;0.87;;;8.90;99.90;;;;;;8380460;28;20185;-66
2022/09/28 17:12:18;;;;;;;1.17;1.03;;;8.70;1.00;;;;;;8397289;28;20209;-68
2022/09/28 17:16:21;;;;;;;1.43;1.20;;;8.50;1.00;;;;;;8381525;28;20196;-66
2022/09/28 17:20:28;;;;;;;1.97;1.20;;;8.30;99.90;;;;;;8381148;28;20259;-65
2022/09/28 17:24:29;;;;;;;1.17;1.07;;;8.20;99.90;;;;;;8384316;28;20187;-66
2022/09/28 17:28:35;;;;;;;1.47;1.30;;;8.20;1.00;;;;;;8379701;28;20181;-66
2022/09/28 17:32:38;;;;;;;3.90;1.00;;;8.10;99.90;;;;;;8395491;28;20181;-67
2022/09/28 17:36:41;;;;;;;0.90;0.90;;;8.00;1.00;;;;;;8380080;28;20190;-66
2022/09/28 17:40:44;;;;;;;1.43;1.00;;;7.80;99.90;;;;;;8382064;28;20244;-67
2022/09/28 17:44:44;;;;;;;1.30;0.97;;;7.60;1.00;;;;;;8379594;28;20189;-66
2022/09/28 17:48:46;;;;;;;1.57;1.33;;;7.50;1.00;;;;;;8380617;28;20173;-66
2022/09/28 17:52:51;;;;;;;1.47;1.03;;;7.30;1.00;;;;;;8383019;28;20184;-68
2022/09/28 17:56:52;;;;;;;2.50;1.20;;;7.20;1.00;;;;;;8378483;28;20226;-68
2022/09/28 18:00:53;;;;;;;1.50;1.37;;;7.10;99.90;;;;;;8382440;28;20256;-67
2022/09/28 18:04:54;;;;;;;1.80;1.50;;;7.10;1.00;;;;;;8383205;28;20178;-66
2022/09/28 18:08:55;;;;;;;1.60;1.50;;;7.10;38.20;;;;;;8382940;28;20192;-67
2022/09/28 18:12:56;;;;;;;1.50;1.40;;;7.20;99.90;;;;;;8394984;28;20288;-68
2022/09/28 18:16:56;;;;;;;1.97;1.70;;;7.30;82.60;;;;;;8380702;28;20208;-67
2022/09/28 18:20:59;;;;;;;2.37;1.70;;;7.40;1.00;;;;;;8382302;28;20531;-67
2022/09/28 18:25:00;;;;;;;1.20;1.10;;;7.50;99.90;;;;;;8378898;28;20192;-67
2022/09/28 18:29:01;;;;;;;1.07;0.97;;;7.50;1.00;;;;;;8387671;28;20188;-69
2022/09/28 18:33:02;;;;;;;1.40;1.23;;;7.40;99.90;;;;;;8384860;28;20215;-66
2022/09/28 18:37:04;;;;;;;2.17;1.47;;;7.20;99.90;;;;;;8385302;28;20300;-66
2022/09/28 18:41:09;;;;;;;1.93;1.67;;;7.00;99.90;;;;;;8385512;28;20207;-65
2022/09/28 18:45:11;;;;;;;2.17;1.60;;;6.80;99.90;;;;;;8385771;28;20182;-67
2022/09/28 18:49:11;;;;;;;1.63;1.53;;;6.70;99.90;;;;;;8384109;28;20185;-66
2022/09/28 18:53:12;;;;;;;1.90;1.50;;;6.60;99.90;;;;;;8383171;28;20523;-66
2022/09/28 18:57:14;;;;;;;1.60;1.50;;;6.50;99.90;;;;;;8384335;28;20196;-67
2022/09/28 19:01:17;;;;;;;2.77;2.00;;;6.40;99.90;;;;;;8386731;28;20292;-66
2022/09/28 19:05:18;;;;;;;1.60;1.50;;;6.30;99.90;;;;;;8376152;28;20185;-66
2022/09/28 19:09:20;;;;;;;2.77;2.00;;;6.20;99.90;;;;;;8387501;28;20185;-67
2022/09/28 19:13:21;;;;;;;3.83;2.00;;;6.20;99.90;;;;;;8385443;28;20272;-67
2022/09/28 19:17:22;;;;;;;2.87;1.77;;;6.10;99.90;;;;;;8382221;28;20228;-67
2022/09/28 19:21:23;;;;;;;3.03;2.10;;;6.00;99.90;;;;;;8382513;28;20213;-66
2022/09/28 19:25:24;;;;;;;3.60;2.37;;;5.90;99.90;;;;;;8383553;28;20185;-67
2022/09/28 19:29:25;;;;;;;3.03;2.20;;;5.80;99.90;;;;;;8384843;28;20178;-66
2022/09/28 19:33:27;;;;;;;3.23;2.50;;;5.70;99.90;;;;;;8389428;28;20223;-66
2022/09/28 19:37:28;;;;;;;2.40;2.00;;;5.60;99.90;;;;;;8383836;28;20213;-67
2022/09/28 19:41:40;;;;;;;2.50;2.00;;;5.40;99.90;;;;;;8383771;28;20197;-68
2022/09/28 19:45:41;;;;;;;3.00;2.07;;;5.40;99.90;;;;;;8385133;28;20180;-67
2022/09/28 19:49:42;;;;;;;3.67;2.10;;;5.20;99.90;;;;;;8388593;28;20185;-67
2022/09/28 19:53:43;;;;;;;2.60;2.07;;;5.10;99.90;;;;;;8385380;28;20260;-67
2022/09/28 19:57:46;;;;;;;3.07;2.50;;;5.10;99.90;;;;;;8386471;28;20201;-67
2022/09/28 20:01:48;;;;;;;3.97;2.83;;;5.20;99.90;;;;;;8384658;28;20217;-66
2022/09/28 20:05:55;;;;;;;4.50;3.10;;;5.40;99.90;;;;;;8383541;28;20185;-68
2022/09/28 20:09:56;;;;;;;4.27;3.57;;;5.70;99.90;;;;;;8364877;28;20185;-67
2022/09/28 20:13:59;;;;;;;3.87;3.43;;;6.00;99.90;;;;;;8382422;28;20229;-67
2022/09/28 20:17:59;;;;;;;3.00;2.70;;;6.10;99.90;;;;;;8382401;28;20185;-67
2022/09/28 20:22:01;;;;;;;3.80;3.07;;;6.10;99.90;;;;;;8377671;28;20205;-67
2022/09/28 20:26:03;;;;;;;3.20;2.90;;;6.10;99.90;;;;;;8383665;28;20177;-67
2022/09/28 20:30:06;;;;;;;3.67;2.77;;;6.10;99.90;;;;;;8384664;28;20192;-67
2022/09/28 20:34:08;;;;;;;5.37;3.50;;;6.00;99.90;;;;;;8374281;28;20189;-67
2022/09/28 20:38:09;;;;;;;4.07;3.67;;;5.90;99.90;;;;;;8383148;28;20192;-67
2022/09/28 20:42:10;;;;;;;4.30;3.50;;;5.90;99.90;;;;;;8383111;28;20220;-67
2022/09/28 20:46:12;;;;;;;4.87;4.07;;;5.80;99.90;;;;;;8380414;28;20185;-68
2022/09/28 20:50:13;;;;;;;5.83;4.23;;;5.80;99.90;;;;;;8383039;28;20268;-67
2022/09/28 20:54:14;;;;;;;6.13;5.27;;;5.80;99.90;;;;;;8378586;28;20196;-67
2022/09/28 20:58:15;;;;;;;7.20;5.93;;;5.70;99.90;;;;;;8384215;28;20185;-67
2022/09/28 21:02:16;;;;;;;8.10;6.40;;;5.70;99.90;;;;;;8372089;28;20213;-66
2022/09/28 21:06:19;;;;;;;8.47;6.57;;;5.70;99.90;;;;;;8379442;28;20241;-66
2022/09/28 21:10:20;;;;;;;8.03;6.50;;;5.70;99.90;;;;;;8380436;28;20185;-67
2022/09/28 21:14:21;;;;;;;7.07;5.53;;;5.60;99.90;;;;;;8382080;28;20266;-67
2022/09/28 21:18:22;;;;;;;8.37;6.40;;;5.60;99.90;;;;;;8381483;28;20181;-66
2022/09/28 21:22:23;;;;;;;8.63;7.33;;;5.50;99.90;;;;;;8378902;28;20212;-66
2022/09/28 21:26:26;;;;;;;10.97;8.23;;;5.40;99.90;;;;;;8373691;28;20181;-66
2022/09/28 21:30:27;;;;;;;11.20;8.63;;;5.30;99.90;;;;;;8382110;28;20198;-66
2022/09/28 21:34:28;;;;;;;12.50;7.90;;;5.20;99.90;;;;;;8391490;28;20192;-67
2022/09/28 21:38:30;;;;;;;9.17;6.87;;;5.10;99.90;;;;;;8378465;28;20192;-66
2022/09/28 21:42:30;;;;;;;8.60;5.93;;;5.10;99.90;;;;;;8378631;28;20216;-65
2022/09/28 21:46:34;;;;;;;8.37;6.53;;;5.10;99.90;;;;;;8379684;28;20522;-66